Home   Weather   USA   Thomasville   Past weeks
Flag for USA

Past Weather in Thomasville, North Carolina, USA — Yesterday and Last 2 Weeks

Currently: 67 °F. Clear. (Weather station: Davidson County Airport, USA). See more current weather

Past Weather in Thomasville — Graph

°F

Thomasville Temperature Yesterday

Maximum temperature yesterday: 84 °F (at 4:55 pm)
Minimum temperature yesterday: 64 °F (at 6:55 am)
Average temperature yesterday: 72 °F

High & Low Weather Summary for the Past Weeks

 TemperatureHumidityPressure
High91 °F (Aug 9, 5:15 pm)100% (Aug 4, 5:15 am)30.29 "Hg (Aug 4, 5:15 am)
Low60 °F (Aug 13, 6:55 am)33% (Aug 13, 3:55 pm)29.84 "Hg (Aug 15, 6:55 pm)
Average76 °F81%30.07 "Hg
* Reported Aug 4 3:15 am — Aug 19 3:15 am, Thomasville. Weather by CustomWeather, © 2022

Note: Actual official high and low records may vary slightly from our data, if they occured in-between our weather recording intervals... More about our weather records

Thomasville Weather History for the Previous 24 Hours

Scroll right to see more
 ConditionsComfort  
Time TempWeatherWind HumidityBarometerVisibility
3:15 am
Fri, Aug 19
67 °FClear.No wind100%30.05 "Hg10 mi
2:55 am68 °FClear.No wind100%30.05 "Hg10 mi
2:35 am68 °FClear.No wind100%30.05 "Hg10 mi
2:15 am69 °FPassing clouds.No wind100%30.05 "Hg10 mi
1:15 am70 °FClear.3 mph88%30.05 "Hg10 mi
12:55 am71 °FClear.No wind84%30.05 "Hg10 mi
12:35 am71 °FPassing clouds.3 mph83%30.05 "Hg10 mi
12:15 am72 °FPassing clouds.3 mph80%30.05 "Hg10 mi
11:55 pm
Thu, Aug 18
70 °FOvercast.No wind89%30.04 "Hg10 mi
11:35 pm71 °FOvercast.No wind82%30.03 "Hg10 mi
11:15 pm71 °FPassing clouds.No wind85%30.03 "Hg10 mi
10:35 pm73 °FClear.No wind76%30.03 "Hg10 mi
9:55 pm73 °FClear.3 mph77%30.02 "Hg10 mi
9:35 pm74 °FClear.No wind74%30.02 "Hg10 mi
7:35 pm78 °FWarm.3 mph65%29.98 "Hg10 mi
7:15 pm79 °FWarm.No wind64%29.98 "Hg10 mi
5:15 pm83 °FScattered clouds.5 mph55%29.98 "Hg10 mi
4:55 pm84 °FScattered clouds.9 mph53%29.98 "Hg10 mi
4:15 pm83 °FSunny.No wind52%29.98 "Hg10 mi
3:35 pm83 °FPartly sunny.5 mph58%29.98 "Hg10 mi
3:15 pm83 °FPartly sunny.3 mph55%29.99 "Hg10 mi
2:35 pm83 °FBroken clouds.No wind56%29.99 "Hg10 mi
2:15 pm82 °FBroken clouds.No wind54%30.00 "Hg10 mi
1:15 pm79 °FBroken clouds.No wind60%30.01 "Hg10 mi
12:35 pm81 °FPartly sunny.3 mph58%30.02 "Hg10 mi
12:15 pm79 °FBroken clouds.No wind59%30.02 "Hg10 mi
11:55 am79 °FBroken clouds.No wind65%30.02 "Hg10 mi
11:35 am77 °FPartly sunny.No wind67%30.03 "Hg10 mi
11:15 am76 °FOvercast.No wind70%30.02 "Hg10 mi
10:35 am74 °FOvercast.No wind79%30.02 "Hg10 mi
10:15 am74 °FOvercast.3 mph80%30.02 "Hg10 mi
9:15 am71 °FPartly sunny.No wind93%30.01 "Hg10 mi
8:55 am71 °FPartly sunny.No wind90%30.01 "Hg10 mi
8:15 am68 °FOvercast.No wind98%30.02 "Hg10 mi
7:55 am67 °FOvercast.No wind100%30.02 "Hg10 mi
7:15 am64 °FSunny.No wind100%30.02 "Hg10 mi
6:55 am64 °FBroken clouds.No wind100%30.02 "Hg10 mi
6:35 am64 °FMostly cloudy.No wind100%30.01 "Hg10 mi
6:15 am64 °FPartly cloudy.No wind100%30.00 "Hg10 mi
5:55 am64 °FMostly cloudy.No wind100%29.99 "Hg10 mi
5:15 am65 °FPassing clouds.No wind100%29.99 "Hg10 mi
4:55 am65 °FPassing clouds.No wind100%29.99 "Hg10 mi
4:35 am65 °FOvercast.No wind100%29.99 "Hg10 mi
4:15 am65 °FPassing clouds.No wind100%29.99 "Hg10 mi
Weather by CustomWeather, © 2022

See weather overview